createdAt,value
2018-07-30T00:01:42.485Z,35.10
2018-07-30T00:03:45.813Z,35.10
2018-07-30T00:05:48.399Z,35.10
2018-07-30T00:07:50.956Z,35.10
2018-07-30T00:09:53.508Z,35.20
2018-07-30T00:11:56.141Z,35.10
2018-07-30T00:14:00.224Z,35.20
2018-07-30T00:16:02.801Z,35.10
2018-07-30T00:18:05.350Z,35.20
2018-07-30T00:20:07.957Z,35.20
2018-07-30T00:22:10.505Z,35.20
2018-07-30T00:24:13.091Z,35.30
2018-07-30T00:26:15.679Z,35.40
2018-07-30T00:28:18.248Z,35.50
2018-07-30T00:30:20.818Z,35.60
2018-07-30T00:32:23.386Z,35.70
2018-07-30T00:34:25.961Z,35.90
2018-07-30T00:36:28.533Z,35.90
2018-07-30T00:38:31.205Z,35.90
2018-07-30T00:40:33.782Z,36.10
2018-07-30T00:42:36.361Z,36.30
2018-07-30T00:44:39.358Z,36.30
2018-07-30T00:46:41.905Z,36.30
2018-07-30T00:48:44.495Z,36.20
2018-07-30T00:50:47.057Z,36.20
2018-07-30T00:52:49.643Z,36.40
2018-07-30T00:54:52.196Z,36.50
2018-07-30T00:56:54.909Z,36.50
2018-07-30T00:58:57.401Z,36.50
2018-07-30T01:01:00.716Z,36.70
2018-07-30T01:03:03.293Z,36.70
2018-07-30T01:05:05.841Z,36.70
2018-07-30T01:07:09.158Z,36.80
2018-07-30T01:09:12.202Z,36.80
2018-07-30T01:11:14.745Z,36.80
2018-07-30T01:13:17.322Z,36.90
2018-07-30T01:15:20.007Z,37.00
2018-07-30T01:17:23.417Z,37.00
2018-07-30T01:19:25.951Z,36.90
2018-07-30T01:21:28.517Z,37.00
2018-07-30T01:23:31.106Z,37.00
2018-07-30T01:25:33.710Z,37.20
2018-07-30T01:27:36.353Z,37.20
2018-07-30T01:29:38.899Z,37.30
2018-07-30T01:31:41.537Z,37.50
2018-07-30T01:33:44.481Z,37.50
2018-07-30T01:35:47.028Z,38.20
2018-07-30T01:37:49.579Z,37.60
2018-07-30T01:39:53.222Z,37.70
2018-07-30T01:41:55.810Z,37.60
2018-07-30T01:43:58.348Z,37.70
2018-07-30T01:46:00.943Z,37.80
2018-07-30T01:48:03.632Z,37.90
2018-07-30T01:50:06.337Z,37.90
2018-07-30T01:52:08.969Z,37.90
2018-07-30T01:54:11.572Z,38.00
2018-07-30T01:56:14.181Z,38.10
2018-07-30T01:58:17.973Z,38.10
2018-07-30T02:00:21.328Z,38.20
2018-07-30T02:02:23.933Z,38.10
2018-07-30T02:04:26.627Z,38.10
2018-07-30T02:06:29.974Z,38.10
2018-07-30T02:08:32.572Z,38.00
2018-07-30T02:10:36.689Z,38.20
2018-07-30T02:12:40.175Z,38.10
2018-07-30T02:14:42.761Z,38.10
2018-07-30T02:16:46.222Z,38.20
2018-07-30T02:18:48.818Z,38.10
2018-07-30T02:20:52.177Z,38.10
2018-07-30T02:22:54.810Z,38.10
2018-07-30T02:24:58.162Z,38.10
2018-07-30T02:27:00.851Z,38.10
2018-07-30T02:29:05.009Z,38.20
2018-07-30T02:31:07.598Z,38.10
2018-07-30T02:33:10.190Z,38.10
2018-07-30T02:35:12.846Z,38.10
2018-07-30T02:37:16.381Z,38.10
2018-07-30T02:39:18.966Z,38.10
2018-07-30T02:41:22.679Z,38.20
2018-07-30T02:43:25.275Z,38.10
2018-07-30T02:45:27.875Z,38.10
2018-07-30T02:47:31.097Z,38.10
2018-07-30T02:49:33.768Z,38.10
2018-07-30T02:51:36.354Z,38.20
2018-07-30T02:53:39.751Z,38.30
2018-07-30T02:55:43.114Z,38.30
2018-07-30T02:57:45.761Z,38.20
2018-07-30T02:59:49.131Z,38.30
2018-07-30T03:01:51.733Z,38.30
2018-07-30T03:03:54.321Z,38.30
2018-07-30T03:05:56.957Z,38.30
2018-07-30T03:07:59.574Z,38.40
2018-07-30T03:10:02.163Z,38.40
2018-07-30T03:12:04.798Z,38.40
2018-07-30T03:14:07.396Z,38.40
2018-07-30T03:16:10.090Z,38.40
2018-07-30T03:18:12.729Z,39.10
2018-07-30T03:20:15.440Z,38.50
2018-07-30T03:22:18.026Z,38.50
2018-07-30T03:24:21.432Z,38.70
2018-07-30T03:26:24.901Z,38.70
2018-07-30T03:28:27.490Z,38.60
2018-07-30T03:30:30.885Z,38.70
2018-07-30T03:32:34.365Z,38.60
2018-07-30T03:34:36.969Z,38.60
2018-07-30T03:36:39.717Z,38.60
2018-07-30T03:38:42.498Z,38.60
2018-07-30T03:40:45.083Z,38.60
2018-07-30T03:42:48.467Z,38.70
2018-07-30T03:44:51.821Z,38.70
2018-07-30T03:46:54.425Z,38.70
2018-07-30T03:48:57.058Z,38.70
2018-07-30T03:50:59.653Z,38.80
2018-07-30T03:53:02.353Z,38.80
2018-07-30T03:55:04.992Z,38.90
2018-07-30T03:57:07.585Z,38.90
2018-07-30T03:59:10.278Z,39.00
2018-07-30T04:01:12.898Z,39.00
2018-07-30T04:03:15.486Z,39.10
2018-07-30T04:05:18.110Z,39.10
2018-07-30T04:07:21.593Z,39.10
2018-07-30T04:09:24.178Z,39.00
2018-07-30T04:11:27.537Z,39.20
2018-07-30T04:13:30.164Z,39.10
2018-07-30T04:15:33.519Z,39.30
2018-07-30T04:17:36.106Z,39.20
2018-07-30T04:19:39.904Z,39.40
2018-07-30T04:21:42.578Z,39.40
2018-07-30T04:23:45.163Z,39.40
2018-07-30T04:25:48.557Z,39.70
2018-07-30T04:27:51.923Z,39.70
2018-07-30T04:29:54.610Z,39.70
2018-07-30T04:31:57.227Z,39.80
2018-07-30T04:33:59.814Z,39.90
2018-07-30T04:36:02.433Z,39.90
2018-07-30T04:38:05.063Z,39.80
2018-07-30T04:40:08.494Z,40.10
2018-07-30T04:42:12.590Z,40.20
2018-07-30T04:44:15.242Z,40.10
2018-07-30T04:46:17.963Z,40.10
2018-07-30T04:48:20.566Z,40.10
2018-07-30T04:50:24.037Z,40.20
2018-07-30T04:52:26.595Z,40.20
2018-07-30T04:54:29.999Z,40.30
2018-07-30T04:56:32.646Z,40.30
2018-07-30T04:58:35.255Z,40.30
2018-07-30T05:00:37.858Z,40.30
2018-07-30T05:02:40.478Z,40.30
2018-07-30T05:04:43.155Z,40.30
2018-07-30T05:06:45.747Z,40.40
2018-07-30T05:08:49.469Z,40.50
2018-07-30T05:10:52.837Z,40.50
2018-07-30T05:12:55.513Z,40.50
2018-07-30T05:14:58.141Z,40.50
2018-07-30T05:17:00.866Z,40.50
2018-07-30T05:19:04.961Z,40.50
2018-07-30T05:21:07.872Z,40.50
2018-07-30T05:23:11.254Z,40.50
2018-07-30T05:25:13.838Z,40.40
2018-07-30T05:27:16.618Z,40.60
2018-07-30T05:29:19.970Z,40.80
2018-07-30T05:31:22.729Z,40.70
2018-07-30T05:33:25.371Z,40.70
2018-07-30T05:35:28.722Z,41.00
2018-07-30T05:37:31.413Z,40.90
2018-07-30T05:39:34.092Z,41.00
2018-07-30T05:41:36.673Z,40.90
2018-07-30T05:43:40.063Z,40.80
2018-07-30T05:45:42.699Z,40.70
2018-07-30T05:47:45.281Z,40.80
2018-07-30T05:49:47.878Z,40.80
2018-07-30T05:51:50.598Z,40.80
2018-07-30T05:53:53.200Z,40.60
2018-07-30T05:55:55.904Z,40.40
2018-07-30T05:57:58.529Z,40.30
2018-07-30T06:00:01.133Z,40.20
2018-07-30T06:02:03.748Z,40.10
2018-07-30T06:04:07.255Z,40.10
2018-07-30T06:06:10.718Z,40.10
2018-07-30T06:08:13.322Z,40.10
2018-07-30T06:10:15.942Z,40.20
2018-07-30T06:12:18.606Z,40.20
2018-07-30T06:14:21.319Z,40.30
2018-07-30T06:16:23.995Z,40.40
2018-07-30T06:18:26.670Z,40.40
2018-07-30T06:20:29.258Z,40.50
2018-07-30T06:22:33.390Z,40.50
2018-07-30T06:24:35.985Z,40.50
2018-07-30T06:26:38.569Z,40.60
2018-07-30T06:28:41.202Z,40.50
2018-07-30T06:30:44.671Z,40.60
2018-07-30T06:32:47.258Z,40.60
2018-07-30T06:34:51.114Z,40.60
2018-07-30T06:36:54.145Z,40.60
2018-07-30T06:38:56.910Z,40.60
2018-07-30T06:40:59.542Z,40.70
2018-07-30T06:43:02.138Z,40.80
2018-07-30T06:45:04.818Z,40.80
2018-07-30T06:47:07.920Z,41.50
2018-07-30T06:49:10.519Z,41.00
2018-07-30T06:51:13.886Z,41.10
2018-07-30T06:53:16.511Z,41.10
2018-07-30T06:55:19.101Z,41.10
2018-07-30T06:57:21.691Z,41.10
2018-07-30T06:59:24.341Z,41.20
2018-07-30T07:01:26.959Z,41.20
2018-07-30T07:03:29.541Z,41.30
2018-07-30T07:05:32.937Z,41.30
2018-07-30T07:07:36.307Z,41.30
2018-07-30T07:09:38.964Z,41.20
2018-07-30T07:11:41.587Z,41.40
2018-07-30T07:13:44.942Z,41.50
2018-07-30T07:15:47.557Z,41.40
2018-07-30T07:17:50.956Z,41.50
2018-07-30T07:19:53.582Z,41.40
2018-07-30T07:21:56.305Z,41.40
2018-07-30T07:23:59.717Z,41.60
2018-07-30T07:26:02.327Z,41.60
2018-07-30T07:28:05.089Z,41.60
2018-07-30T07:30:08.431Z,41.70
2018-07-30T07:32:12.539Z,41.50
2018-07-30T07:34:15.889Z,41.40
2018-07-30T07:36:18.641Z,41.30
2018-07-30T07:38:21.226Z,41.30
2018-07-30T07:40:23.865Z,41.30
2018-07-30T07:42:27.358Z,41.10
2018-07-30T07:44:30.711Z,41.10
2018-07-30T07:46:33.306Z,40.90
2018-07-30T07:48:35.998Z,41.10
2018-07-30T07:50:38.689Z,41.20
2018-07-30T07:52:42.148Z,41.30
2018-07-30T07:54:45.139Z,41.20
2018-07-30T07:56:48.626Z,41.10
2018-07-30T07:58:51.302Z,41.00
2018-07-30T08:00:54.399Z,41.00
2018-07-30T08:02:58.606Z,41.00
2018-07-30T08:05:01.187Z,41.00
2018-07-30T08:07:04.589Z,41.10
2018-07-30T08:09:07.963Z,40.90
2018-07-30T08:11:11.337Z,40.90
2018-07-30T08:13:13.957Z,40.80
2018-07-30T08:15:16.545Z,40.80
2018-07-30T08:17:19.146Z,40.70
2018-07-30T08:19:21.775Z,40.70
2018-07-30T08:21:24.524Z,40.70
2018-07-30T08:23:27.201Z,40.80
2018-07-30T08:25:29.825Z,40.80
2018-07-30T08:27:32.423Z,40.70
2018-07-30T08:29:35.008Z,40.80
2018-07-30T08:31:37.637Z,40.80
2018-07-30T08:33:40.375Z,40.80
2018-07-30T08:35:43.051Z,40.90
2018-07-30T08:37:45.686Z,40.70
2018-07-30T08:39:48.282Z,40.40
2018-07-30T08:41:50.874Z,40.30
2018-07-30T08:43:53.550Z,40.40
2018-07-30T08:45:56.327Z,40.30
2018-07-30T08:47:58.919Z,40.00
2018-07-30T08:50:02.331Z,39.70
2018-07-30T08:52:04.934Z,39.70
2018-07-30T08:54:07.542Z,39.70
2018-07-30T08:56:10.161Z,39.70
2018-07-30T08:58:12.786Z,39.60
2018-07-30T09:00:15.370Z,39.50
2018-07-30T09:02:18.010Z,39.50
2018-07-30T09:04:20.617Z,39.30
2018-07-30T09:06:23.206Z,39.10
2018-07-30T09:08:26.602Z,39.10
2018-07-30T09:10:30.080Z,39.10
2018-07-30T09:12:32.785Z,39.10
2018-07-30T09:14:35.529Z,39.00
2018-07-30T09:16:38.119Z,39.00
2018-07-30T09:18:41.465Z,38.50
2018-07-30T09:20:44.118Z,38.40
2018-07-30T09:22:46.712Z,38.40
2018-07-30T09:24:49.302Z,38.20
2018-07-30T09:26:51.969Z,38.10
2018-07-30T09:28:54.554Z,37.70
2018-07-30T09:30:57.264Z,37.60
2018-07-30T09:33:00.802Z,37.40
2018-07-30T09:35:03.285Z,37.30
2018-07-30T09:37:05.885Z,37.20
2018-07-30T09:39:08.606Z,37.20
2018-07-30T09:41:11.941Z,37.20
2018-07-30T09:43:14.543Z,37.20
2018-07-30T09:45:18.022Z,37.10
2018-07-30T09:47:20.616Z,37.10
2018-07-30T09:49:23.965Z,36.80
2018-07-30T09:51:26.784Z,36.60
2018-07-30T09:53:30.153Z,36.70
2018-07-30T09:55:32.746Z,36.70
2018-07-30T09:57:36.143Z,36.50
2018-07-30T09:59:39.489Z,36.50
2018-07-30T10:01:42.194Z,36.40
2018-07-30T10:03:44.951Z,36.50
2018-07-30T10:05:47.566Z,36.20
2018-07-30T10:07:50.913Z,36.00
2018-07-30T10:09:53.532Z,35.90
2018-07-30T10:11:57.009Z,36.00
2018-07-30T10:13:59.620Z,35.90
2018-07-30T10:16:02.296Z,35.70
2018-07-30T10:18:04.975Z,35.60
2018-07-30T10:20:07.516Z,35.50
2018-07-30T10:22:10.284Z,35.30
2018-07-30T10:24:12.962Z,35.20
2018-07-30T10:26:15.554Z,35.10
2018-07-30T10:28:18.949Z,34.90
2018-07-30T10:30:22.320Z,34.90
2018-07-30T10:32:24.901Z,34.90
2018-07-30T10:34:28.366Z,37.10
2018-07-30T10:36:31.063Z,37.00
2018-07-30T10:38:33.741Z,38.40
2018-07-30T10:40:36.742Z,39.10
2018-07-30T10:42:40.114Z,40.70
2018-07-30T10:44:42.722Z,40.70
2018-07-30T10:46:45.687Z,40.00
2018-07-30T10:48:49.050Z,40.00
2018-07-30T10:50:51.634Z,39.90
2018-07-30T10:52:54.283Z,40.40
2018-07-30T10:54:56.869Z,40.20
2018-07-30T10:56:59.460Z,39.60
2018-07-30T10:59:02.091Z,39.40
2018-07-30T11:01:04.719Z,38.60
2018-07-30T11:03:07.365Z,38.20
2018-07-30T11:05:10.014Z,37.90
2018-07-30T11:07:12.594Z,37.60
2018-07-30T11:09:15.188Z,37.20
2018-07-30T11:11:17.878Z,36.70
2018-07-30T11:13:20.512Z,35.90
2018-07-30T11:15:23.101Z,35.40
2018-07-30T11:17:26.121Z,35.20
2018-07-30T11:19:28.713Z,35.20
2018-07-30T11:21:32.137Z,34.80
2018-07-30T11:23:34.738Z,34.70
2018-07-30T11:25:37.330Z,34.00
2018-07-30T11:27:39.914Z,33.60
2018-07-30T11:29:43.327Z,33.50
2018-07-30T11:31:45.917Z,34.00
2018-07-30T11:33:48.510Z,32.80
2018-07-30T11:35:51.435Z,32.60
2018-07-30T11:37:54.920Z,31.80
2018-07-30T11:39:57.505Z,31.70
2018-07-30T11:42:00.915Z,31.50
2018-07-30T11:44:04.279Z,31.70
2018-07-30T11:46:08.384Z,31.60
2018-07-30T11:48:11.083Z,31.50
2018-07-30T11:50:14.436Z,31.00
2018-07-30T11:52:17.031Z,30.90
2018-07-30T11:54:19.709Z,30.40
2018-07-30T11:56:22.383Z,30.00
2018-07-30T11:58:25.777Z,30.20
2018-07-30T12:00:28.769Z,30.10
2018-07-30T12:02:32.159Z,30.00
2018-07-30T12:04:34.741Z,29.90
2018-07-30T12:06:38.138Z,29.80
2018-07-30T12:08:41.548Z,29.60
2018-07-30T12:10:45.006Z,29.50
2018-07-30T12:12:47.642Z,29.40
2018-07-30T12:14:50.226Z,29.50
2018-07-30T12:16:52.825Z,29.30
2018-07-30T12:18:55.504Z,29.30
2018-07-30T12:20:58.110Z,29.30
2018-07-30T12:23:01.469Z,28.80
2018-07-30T12:25:04.117Z,28.80
2018-07-30T12:27:06.694Z,28.60
2018-07-30T12:29:09.394Z,28.30
2018-07-30T12:31:12.072Z,28.30
2018-07-30T12:33:14.678Z,28.50
2018-07-30T12:35:17.270Z,28.40
2018-07-30T12:37:19.997Z,28.00
2018-07-30T12:39:22.581Z,28.00
2018-07-30T12:41:25.959Z,28.30
2018-07-30T12:43:28.843Z,28.20
2018-07-30T12:45:31.494Z,27.60
2018-07-30T12:47:34.082Z,27.50
2018-07-30T12:49:37.005Z,27.70
2018-07-30T12:51:39.624Z,27.80
2018-07-30T12:53:42.221Z,27.50
2018-07-30T12:55:44.852Z,27.10
2018-07-30T12:57:47.438Z,26.70
2018-07-30T12:59:50.145Z,26.70
2018-07-30T13:01:52.772Z,26.50
2018-07-30T13:03:55.369Z,26.60
2018-07-30T13:05:58.008Z,26.40
2018-07-30T13:08:00.985Z,26.30
2018-07-30T13:10:03.592Z,26.10
2018-07-30T13:12:06.303Z,26.70
2018-07-30T13:14:09.314Z,26.50
2018-07-30T13:16:12.682Z,26.70
2018-07-30T13:18:15.270Z,26.60
2018-07-30T13:20:18.970Z,26.30
2018-07-30T13:22:22.325Z,26.20
2018-07-30T13:24:24.933Z,26.10
2018-07-30T13:26:28.551Z,27.00
2018-07-30T13:28:31.157Z,26.40
2018-07-30T13:30:33.745Z,26.20
2018-07-30T13:32:36.398Z,25.80
2018-07-30T13:34:39.074Z,25.60
2018-07-30T13:36:41.664Z,25.50
2018-07-30T13:38:44.345Z,25.40
2018-07-30T13:40:46.944Z,25.40
2018-07-30T13:42:49.526Z,25.20
2018-07-30T13:44:53.225Z,25.20
2018-07-30T13:46:56.589Z,25.10
2018-07-30T13:48:59.280Z,25.00
2018-07-30T13:51:01.944Z,25.00
2018-07-30T13:53:04.634Z,24.50
2018-07-30T13:55:07.214Z,24.20
2018-07-30T13:57:10.628Z,23.70
2018-07-30T13:59:14.095Z,24.30
2018-07-30T14:01:16.678Z,24.20
2018-07-30T14:03:20.377Z,24.70
2018-07-30T14:05:23.735Z,24.70
2018-07-30T14:07:26.347Z,24.60
2018-07-30T14:09:29.737Z,24.30
2018-07-30T14:11:33.097Z,24.30
2018-07-30T14:13:35.801Z,24.30
2018-07-30T14:15:39.229Z,24.90
2018-07-30T14:17:41.818Z,24.80
2018-07-30T14:19:44.548Z,24.70
2018-07-30T14:21:47.343Z,24.60
2018-07-30T14:23:50.709Z,24.40
2018-07-30T14:25:53.296Z,24.40
2018-07-30T14:27:57.813Z,24.40
2018-07-30T14:30:01.169Z,24.50
2018-07-30T14:32:03.786Z,24.40
2018-07-30T14:34:07.172Z,24.70
2018-07-30T14:36:10.633Z,24.70
2018-07-30T14:38:13.234Z,24.60
2018-07-30T14:40:15.876Z,24.50
2018-07-30T14:42:18.481Z,24.40
2018-07-30T14:44:21.064Z,24.50
2018-07-30T14:46:24.525Z,24.10
2018-07-30T14:48:27.120Z,24.00
2018-07-30T14:52:33.861Z,24.00
2018-07-30T14:54:36.444Z,23.90
2018-07-30T14:56:39.035Z,23.90
2018-07-30T14:58:41.666Z,23.90
2018-07-30T15:00:44.261Z,23.90
2018-07-30T15:02:46.977Z,24.20
2018-07-30T15:04:49.661Z,24.10
2018-07-30T15:06:53.009Z,23.90
2018-07-30T15:08:55.722Z,23.90
2018-07-30T15:10:58.613Z,23.80
2018-07-30T15:13:01.997Z,23.30
2018-07-30T15:15:04.592Z,23.20
2018-07-30T15:17:07.986Z,23.10
2018-07-30T15:19:11.447Z,23.30
2018-07-30T15:21:14.039Z,23.30
2018-07-30T15:23:17.523Z,23.60
2018-07-30T15:25:20.139Z,23.50
2018-07-30T15:27:22.734Z,23.50
2018-07-30T15:29:25.371Z,23.50
2018-07-30T15:31:27.977Z,23.60
2018-07-30T15:33:30.598Z,23.50
2018-07-30T15:35:33.221Z,23.40
2018-07-30T15:37:35.922Z,23.60
2018-07-30T15:39:38.537Z,23.80
2018-07-30T15:41:42.025Z,24.10
2018-07-30T15:43:45.385Z,24.20
2018-07-30T15:45:48.003Z,24.20
2018-07-30T15:47:51.393Z,24.20
2018-07-30T15:49:54.088Z,24.10
2018-07-30T15:51:56.726Z,24.10
2018-07-30T15:53:59.452Z,24.10
2018-07-30T15:56:02.767Z,24.30
2018-07-30T15:58:05.366Z,24.20
2018-07-30T16:00:08.003Z,24.30
2018-07-30T16:02:10.623Z,24.40
2018-07-30T16:04:13.201Z,24.40
2018-07-30T16:06:16.594Z,24.60
2018-07-30T16:08:19.977Z,24.50
2018-07-30T16:10:23.345Z,24.60
2018-07-30T16:12:25.965Z,24.50
2018-07-30T16:14:29.322Z,24.90
2018-07-30T16:16:32.011Z,24.80
2018-07-30T16:18:36.222Z,25.10
2018-07-30T16:20:38.809Z,25.00
2018-07-30T16:22:42.161Z,24.70
2018-07-30T16:24:44.803Z,24.70
2018-07-30T16:26:47.391Z,25.00
2018-07-30T16:28:49.986Z,24.90
2018-07-30T16:30:52.871Z,24.70
2018-07-30T16:32:55.567Z,24.70
2018-07-30T16:34:58.150Z,24.80
2018-07-30T16:37:01.944Z,24.90
2018-07-30T16:39:04.538Z,24.90
2018-07-30T16:41:07.154Z,24.90
2018-07-30T16:43:10.603Z,25.10
2018-07-30T16:45:13.982Z,25.10
2018-07-30T16:47:17.364Z,25.10
2018-07-30T16:49:20.773Z,25.10
2018-07-30T16:51:24.162Z,25.70
2018-07-30T16:53:27.651Z,25.10
2018-07-30T16:55:30.277Z,25.00
2018-07-30T16:57:32.870Z,25.00
2018-07-30T16:59:35.472Z,25.00
2018-07-30T17:01:38.474Z,25.00
2018-07-30T17:03:41.826Z,26.20
2018-07-30T17:05:44.526Z,26.10
2018-07-30T17:07:47.169Z,26.00
2018-07-30T17:09:49.884Z,25.30
2018-07-30T17:11:52.473Z,24.90
2018-07-30T17:13:56.261Z,24.80
2018-07-30T17:15:59.627Z,24.80
2018-07-30T17:18:02.319Z,24.70
2018-07-30T17:20:04.999Z,24.50
2018-07-30T17:22:08.362Z,24.80
2018-07-30T17:24:11.064Z,24.30
2018-07-30T17:26:15.209Z,24.30
2018-07-30T17:28:17.861Z,24.30
2018-07-30T17:30:21.233Z,24.20
2018-07-30T17:32:23.866Z,24.20
2018-07-30T17:34:26.457Z,24.20
2018-07-30T17:36:29.043Z,24.20
2018-07-30T17:38:31.719Z,23.90
2018-07-30T17:40:34.416Z,24.00
2018-07-30T17:42:37.007Z,24.10
2018-07-30T17:44:40.399Z,24.20
2018-07-30T17:46:43.877Z,24.50
2018-07-30T17:48:46.467Z,24.40
2018-07-30T17:50:49.857Z,24.30
2018-07-30T17:52:53.252Z,24.20
2018-07-30T17:54:56.599Z,24.40
2018-07-30T17:56:59.611Z,24.40
2018-07-30T17:59:02.200Z,24.50
2018-07-30T18:01:05.550Z,24.80
2018-07-30T18:03:08.174Z,24.70
2018-07-30T18:05:11.543Z,24.60
2018-07-30T18:07:14.146Z,24.50
2018-07-30T18:09:17.537Z,24.70
2018-07-30T18:11:20.372Z,24.70
2018-07-30T18:13:22.959Z,24.80
2018-07-30T18:15:25.601Z,24.90
2018-07-30T18:17:28.189Z,24.90
2018-07-30T18:19:30.786Z,25.00
2018-07-30T18:21:33.406Z,25.10
2018-07-30T18:23:35.999Z,25.10
2018-07-30T18:25:38.711Z,25.80
2018-07-30T18:27:41.342Z,25.30
2018-07-30T18:29:43.931Z,25.40
2018-07-30T18:31:46.564Z,25.60
2018-07-30T18:33:49.210Z,25.80
2018-07-30T18:35:51.806Z,25.80
2018-07-30T18:37:55.185Z,26.20
2018-07-30T18:39:58.581Z,26.40
2018-07-30T18:42:02.054Z,26.40
2018-07-30T18:44:04.673Z,26.40
2018-07-30T18:46:08.063Z,26.40
2018-07-30T18:48:10.654Z,26.40
2018-07-30T18:50:13.246Z,26.40
2018-07-30T18:52:15.883Z,26.40
2018-07-30T18:54:19.350Z,26.60
2018-07-30T18:56:21.988Z,26.60
2018-07-30T18:58:24.726Z,26.70
2018-07-30T19:00:27.407Z,26.90
2018-07-30T19:02:30.052Z,27.00
2018-07-30T19:04:32.689Z,27.20
2018-07-30T19:06:35.300Z,27.40
2018-07-30T19:08:37.889Z,27.50
2018-07-30T19:10:41.719Z,27.90
2018-07-30T19:12:45.067Z,28.10
2018-07-30T19:14:47.657Z,28.00
2018-07-30T19:16:51.207Z,28.40
2018-07-30T19:18:53.826Z,28.40
2018-07-30T19:20:57.186Z,28.70
2018-07-30T19:22:59.825Z,28.70
2018-07-30T19:25:02.418Z,28.70
2018-07-30T19:27:05.011Z,28.70
2018-07-30T19:29:07.649Z,28.80
2018-07-30T19:31:10.243Z,28.80
2018-07-30T19:33:12.825Z,28.90
2018-07-30T19:35:15.637Z,29.00
2018-07-30T19:37:18.219Z,29.10
2018-07-30T19:39:22.111Z,29.30
2018-07-30T19:41:25.514Z,29.40
2018-07-30T19:43:28.996Z,29.50
2018-07-30T19:45:31.660Z,29.40
2018-07-30T19:47:34.299Z,29.50
2018-07-30T19:49:37.021Z,29.60
2018-07-30T19:51:39.688Z,29.80
2018-07-30T19:53:42.264Z,29.90
2018-07-30T19:55:44.860Z,30.00
2018-07-30T19:57:48.325Z,30.10
2018-07-30T19:59:52.449Z,30.10
2018-07-30T20:01:55.040Z,30.00
2018-07-30T20:03:58.406Z,30.10
2018-07-30T20:06:01.092Z,30.00
2018-07-30T20:08:03.770Z,30.00
2018-07-30T20:10:06.357Z,30.00
2018-07-30T20:12:09.874Z,30.10
2018-07-30T20:14:13.217Z,30.10
2018-07-30T20:16:17.339Z,30.00
2018-07-30T20:18:19.978Z,30.00
2018-07-30T20:20:22.595Z,30.00
2018-07-30T20:22:25.957Z,31.00
2018-07-30T20:24:28.686Z,30.40
2018-07-30T20:26:32.866Z,30.90
2018-07-30T20:28:35.542Z,30.80
2018-07-30T20:30:38.241Z,30.90
2018-07-30T20:32:41.593Z,30.80
2018-07-30T20:34:44.184Z,30.70
2018-07-30T20:36:46.838Z,30.80
2018-07-30T20:38:49.446Z,30.90
2018-07-30T20:40:52.930Z,31.20
2018-07-30T20:42:55.577Z,31.10
2018-07-30T20:44:58.332Z,31.20
2018-07-30T20:47:01.778Z,31.40
2018-07-30T20:49:04.412Z,31.20
2018-07-30T20:51:06.999Z,31.10
2018-07-30T20:53:09.701Z,31.10
2018-07-30T20:55:12.583Z,30.90
2018-07-30T20:57:15.185Z,30.80
2018-07-30T20:59:17.774Z,31.40
2018-07-30T21:01:20.419Z,30.60
2018-07-30T21:03:23.773Z,30.50
2018-07-30T21:05:26.411Z,30.50
2018-07-30T21:07:29.169Z,30.50
2018-07-30T21:09:32.525Z,30.40
2018-07-30T21:11:35.190Z,30.20
2018-07-30T21:13:37.790Z,30.30
2018-07-30T21:15:40.465Z,30.30
2018-07-30T21:17:43.144Z,30.30
2018-07-30T21:19:45.761Z,30.30
2018-07-30T21:21:48.461Z,30.40
2018-07-30T21:23:51.055Z,30.40
2018-07-30T21:25:54.175Z,30.60
2018-07-30T21:27:57.534Z,30.90
2018-07-30T21:30:00.138Z,30.80
2018-07-30T21:32:03.844Z,30.70
2018-07-30T21:34:07.210Z,30.70
2018-07-30T21:36:10.582Z,30.80
2018-07-30T21:38:13.206Z,30.70
2018-07-30T21:40:16.568Z,30.80
2018-07-30T21:42:19.174Z,30.80
2018-07-30T21:44:22.958Z,31.30
2018-07-30T21:46:26.319Z,31.40
2018-07-30T21:48:29.013Z,31.30
2018-07-30T21:50:31.626Z,32.00
2018-07-30T21:52:34.210Z,31.60
2018-07-30T21:54:36.813Z,31.60
2018-07-30T21:56:39.449Z,31.70
2018-07-30T21:58:42.041Z,31.80
2018-07-30T22:00:44.637Z,31.90
2018-07-30T22:02:47.381Z,31.90
2018-07-30T22:04:49.914Z,31.90
2018-07-30T22:06:53.517Z,32.00
2018-07-30T22:08:57.220Z,32.00
2018-07-30T22:11:00.578Z,32.10
2018-07-30T22:13:03.183Z,32.00
2018-07-30T22:15:06.578Z,32.20
2018-07-30T22:17:09.929Z,32.40
2018-07-30T22:19:12.542Z,32.20
2018-07-30T22:21:16.038Z,32.40
2018-07-30T22:23:19.393Z,32.60
2018-07-30T22:25:21.992Z,32.40
2018-07-30T22:27:24.635Z,32.60
2018-07-30T22:29:27.347Z,32.80
2018-07-30T22:31:31.439Z,32.90
2018-07-30T22:33:34.254Z,32.80
2018-07-30T22:35:37.725Z,32.80
2018-07-30T22:37:40.337Z,32.80
2018-07-30T22:39:43.077Z,32.90
2018-07-30T22:41:45.754Z,32.80
2018-07-30T22:43:48.350Z,32.90
2018-07-30T22:45:51.733Z,33.20
2018-07-30T22:47:55.089Z,33.10
2018-07-30T22:49:57.682Z,33.10
2018-07-30T22:52:00.683Z,33.10
2018-07-30T22:54:04.037Z,33.50
2018-07-30T22:56:06.738Z,33.10
2018-07-30T22:58:10.878Z,33.30
2018-07-30T23:00:13.470Z,33.20
2018-07-30T23:02:16.058Z,33.20
2018-07-30T23:04:18.682Z,33.30
2018-07-30T23:06:22.065Z,33.40
2018-07-30T23:08:24.677Z,33.30
2018-07-30T23:10:27.291Z,33.40
2018-07-30T23:12:29.897Z,33.50
2018-07-30T23:14:33.261Z,33.70
2018-07-30T23:16:36.053Z,33.60
2018-07-30T23:18:38.647Z,33.70
2018-07-30T23:20:41.249Z,33.70
2018-07-30T23:22:43.890Z,33.80
2018-07-30T23:24:47.249Z,33.90
2018-07-30T23:26:49.947Z,33.80
2018-07-30T23:28:54.110Z,34.10
2018-07-30T23:30:56.699Z,34.10
2018-07-30T23:32:59.287Z,34.20
2018-07-30T23:35:01.977Z,34.20
2018-07-30T23:37:04.620Z,34.20
2018-07-30T23:39:07.178Z,34.30
2018-07-30T23:41:09.806Z,34.20
2018-07-30T23:43:12.413Z,34.30
2018-07-30T23:45:14.998Z,34.50
2018-07-30T23:47:17.946Z,34.70
2018-07-30T23:49:22.042Z,34.70
2018-07-30T23:51:24.632Z,34.70
2018-07-30T23:53:28.070Z,34.80
2018-07-30T23:55:30.665Z,34.70
2018-07-30T23:57:33.361Z,34.70
2018-07-30T23:59:35.985Z,34.80
